Rhyl, United Kingdom

11:09 PM BST on June 03, 2015 (GMT +0100)
Rhyl | | Change Station
CLOSE
Current Station
Personal Weather Station
Location: Rhyl,
Elevation: 20 ft
Nearby Weather Stations

Elev 20 ft 53.32 °N, 3.48 °W | Updated 14 seconds ago

Clear
Clear
51.3 °F
Feels Like 51.3 °F
N
1.0
Wind Variable Wind from SE
Gusts 5.0 mph

Today
High -- | Low -- °F
--% Chance of Precip.
Yesterday
High -- | Low -- °F
Precip. -- in
4:51 AM 9:33 PM
Full, 98% visible
Pressure 30.30 in
Visibility -9999.0 miles
Clouds
Dew Point 44 °F
Humidity 77%
Rainfall 0.02 in
Snow Depth Not available.
UV Not available.
Pollen Not available.
Air Quality Not available.
Flu Activity Not available.
METAR EGGP 032150Z 00000KT CAVOK 11/07 Q1026

More Conditions Fewer Conditions

Pressure 30.30 in
Visibility -9999.0 miles
Clouds
Dew Point 44 °F
Humidity 77%
Rainfall 0.02 in
Snow Depth Not available.
UV Not available.
Pollen Not available.
Air Quality Not available.
Flu Activity Not available.
METAR EGGP 032150Z 00000KT CAVOK 11/07 Q1026

More Conditions Fewer Conditions

10-Day Weather Forecast

×

Almanac

Astronomy

Jun. 03, 2015 Rise Set
Actual Time
Civil Twilight
Nautical Twilight
Astronomical Twilight
Moon
Length of Visible Light
Length of Day
Tomorrow will be .
, % of the Moon is Illuminated

Today's Extremes

Country Highs Country Lows

Community

WunderPhotos

Upload Photos

1,826,291 photos uploaded!

WunderBlogs® & News

Nearby

Air Quality

  Air Quality AQ Index Pollutant
Not available.

Snow Depth

Station Depth Elevation

Earthquake Activity

City Distance Mag. Time & Date
Minimum magnitude displayed is 2.5.

Coastal Water Temperatures

Place Temperature

Stations

Nearby Weather Stations

Station Location Temp. Windchill Dew Point Humidity Wind Precip. Elev Updated Type